Time;durP1;ratioP1;P1;durP2;ratioP2;P2;SDS_P1;SDS_P2;PMS_P1;PMS_P2;Temp;Humidity;BMP_temperature;BMP_pressure;BME280_temperature;BME280_humidity;BME280_pressure;Samples;Min_cycle;Max_cycle;Signal;HPM_P1;HPM_P2
2023/05/03 00:00:16;;;;;;;7.60;3.17;;;8.90;1.00;;;;;;5059309;28;20037;-69
2023/05/03 00:02:43;;;;;;;5.22;2.53;;;8.80;1.00;;;;;;5059374;28;20033;-69
2023/05/03 00:05:11;;;;;;;7.03;2.53;;;8.90;1.00;;;;;;5059268;28;20052;-70
2023/05/03 00:07:39;;;;;;;9.05;3.05;;;8.80;1.00;;;;;;5059334;28;20044;-69
2023/05/03 00:10:05;;;;;;;11.75;3.15;;;8.80;1.00;;;;;;5058720;28;20355;-70
2023/05/03 00:12:31;;;;;;;19.27;3.30;;;9.00;1.00;;;;;;5059206;28;20033;-70
2023/05/03 00:14:57;;;;;;;11.02;2.97;;;8.90;1.00;;;;;;5041982;28;20426;-71
2023/05/03 00:17:23;;;;;;;11.60;3.30;;;8.80;1.00;;;;;;5058417;28;20059;-70
2023/05/03 00:19:48;;;;;;;10.25;3.25;;;8.70;1.00;;;;;;5059134;28;20376;-70
2023/05/03 00:22:14;;;;;;;11.82;3.00;;;8.70;1.00;;;;;;5091838;28;20048;-70
2023/05/03 00:24:40;;;;;;;13.13;3.00;;;8.60;1.00;;;;;;5058442;28;20059;-70
2023/05/03 00:27:06;;;;;;;16.63;3.72;;;8.70;1.00;;;;;;5059583;28;20047;-71
2023/05/03 00:29:32;;;;;;;12.00;2.97;;;8.70;1.00;;;;;;5059025;28;20043;-70
2023/05/03 00:31:58;;;;;;;8.88;3.40;;;8.50;1.00;;;;;;5058076;28;20041;-70
2023/05/03 00:34:24;;;;;;;6.78;3.00;;;8.50;1.00;;;;;;5058197;28;20057;-71
2023/05/03 00:36:50;;;;;;;5.85;3.10;;;8.40;1.00;;;;;;5058652;28;20059;-71
2023/05/03 00:39:16;;;;;;;5.78;3.22;;;8.40;1.00;;;;;;5041262;28;20036;-71
2023/05/03 00:41:42;;;;;;;7.05;3.13;;;8.40;1.00;;;;;;5041078;28;20032;-70
2023/05/03 00:44:08;;;;;;;6.60;2.88;;;8.40;1.00;;;;;;5074611;28;20041;-70
2023/05/03 00:46:34;;;;;;;5.22;3.00;;;8.20;1.00;;;;;;5074783;28;20335;-71
2023/05/03 00:49:00;;;;;;;4.65;2.88;;;8.20;1.00;;;;;;5041250;28;20083;-70
2023/05/03 00:51:27;;;;;;;6.53;3.05;;;8.10;1.00;;;;;;5058604;28;20077;-70
2023/05/03 00:53:52;;;;;;;6.50;3.17;;;8.10;1.00;;;;;;5058578;28;20296;-71
2023/05/03 00:56:25;;;;;;;5.05;3.00;;;8.00;1.00;;;;;;5057462;28;20040;-69
2023/05/03 00:58:51;;;;;;;4.68;2.80;;;8.00;1.00;;;;;;5041041;28;20067;-70
2023/05/03 01:01:18;;;;;;;4.43;2.88;;;8.10;1.00;;;;;;5091292;28;20273;-69
2023/05/03 01:03:45;;;;;;;5.13;2.80;;;8.00;1.00;;;;;;5057374;28;20122;-71
2023/05/03 01:06:16;;;;;;;7.25;3.22;;;8.00;1.00;;;;;;5058228;28;20269;-71
2023/05/03 01:08:54;;;;;;;4.10;2.70;;;7.90;1.00;;;;;;5058189;28;20025;-71
2023/05/03 01:11:32;;;;;;;8.20;3.35;;;7.90;3.80;;;;;;5058214;28;20044;-71
2023/05/03 01:14:36;;;;;;;4.88;3.13;;;7.80;5.90;;;;;;5058285;28;20098;-71
2023/05/03 01:17:10;;;;;;;5.97;2.88;;;7.80;8.60;;;;;;5040675;28;20104;-71
2023/05/03 01:19:40;;;;;;;6.35;3.15;;;7.80;11.00;;;;;;5057291;28;20029;-71
2023/05/03 01:22:26;;;;;;;5.22;2.95;;;7.80;8.60;;;;;;5040756;28;20043;-71
2023/05/03 01:25:09;;;;;;;8.65;3.75;;;7.80;9.70;;;;;;5058224;28;20033;-71
2023/05/03 01:27:36;;;;;;;7.20;2.88;;;7.70;9.80;;;;;;5090770;28;20051;-72
2023/05/03 01:30:07;;;;;;;4.82;3.25;;;7.60;13.40;;;;;;5057110;28;20364;-69
2023/05/03 01:33:00;;;;;;;5.55;3.20;;;7.70;12.90;;;;;;5057062;28;20025;-70
2023/05/03 01:35:41;;;;;;;;;;;7.70;12.50;;;;;;5091037;28;20029;-70
2023/05/03 01:38:08;;;;;;;5.53;3.13;;;7.60;15.80;;;;;;5090462;28;19916;-72
2023/05/03 01:40:45;;;;;;;5.38;3.30;;;7.60;14.70;;;;;;5057695;28;20020;-71
2023/05/03 01:43:14;;;;;;;5.75;3.10;;;7.60;18.30;;;;;;5057673;28;20037;-70
2023/05/03 01:45:41;;;;;;;7.45;3.17;;;7.50;20.10;;;;;;5056925;28;20376;-71
2023/05/03 01:48:14;;;;;;;4.78;3.22;;;7.50;21.10;;;;;;5057441;28;20108;-71
2023/05/03 01:50:40;;;;;;;6.68;2.92;;;7.40;19.60;;;;;;5074051;28;20178;-70
2023/05/03 01:53:06;;;;;;;5.45;3.40;;;7.50;22.10;;;;;;5090114;28;20116;-70
2023/05/03 01:55:32;;;;;;;6.93;3.30;;;7.40;24.90;;;;;;5057380;28;20025;-70
2023/05/03 01:57:58;;;;;;;4.68;3.53;;;7.50;23.70;;;;;;5056512;28;20037;-72
2023/05/03 02:00:24;;;;;;;4.20;3.50;;;7.70;19.20;;;;;;5056502;28;20025;-71
2023/05/03 02:02:50;;;;;;;8.23;3.60;;;7.80;14.00;;;;;;5056465;28;20308;-71
2023/05/03 02:05:16;;;;;;;4.85;3.10;;;7.80;10.20;;;;;;5039892;28;20139;-71
2023/05/03 02:07:42;;;;;;;5.03;3.05;;;7.60;13.30;;;;;;5057034;28;20155;-71
2023/05/03 02:10:13;;;;;;;5.05;3.50;;;7.70;12.90;;;;;;5089899;28;20121;-71
2023/05/03 02:12:43;;;;;;;6.38;3.42;;;7.60;14.20;;;;;;5056385;28;20037;-71
2023/05/03 02:15:10;;;;;;;5.47;3.40;;;7.70;14.50;;;;;;5056357;28;20029;-71
2023/05/03 02:17:36;;;;;;;5.10;2.97;;;7.60;13.70;;;;;;5089764;28;20403;-72
2023/05/03 02:20:04;;;;;;;5.95;3.35;;;7.60;16.70;;;;;;5039842;28;20300;-71
2023/05/03 02:22:32;;;;;;;4.78;3.33;;;7.50;18.40;;;;;;5056950;28;20116;-71
2023/05/03 02:24:57;;;;;;;6.38;3.42;;;7.40;23.20;;;;;;5039788;28;20037;-70
2023/05/03 02:27:24;;;;;;;6.15;3.83;;;7.40;24.30;;;;;;5056922;28;20039;-70
2023/05/03 02:29:50;;;;;;;4.00;3.30;;;7.30;23.60;;;;;;5089624;28;20052;-71
2023/05/03 02:32:17;;;;;;;5.45;3.17;;;7.30;27.60;;;;;;5055932;28;20264;-71
2023/05/03 02:34:47;;;;;;;8.18;3.50;;;7.20;27.60;;;;;;5089716;28;20080;-71
2023/05/03 02:37:17;;;;;;;;;;;7.20;30.80;;;;;;5072746;28;20033;-72
2023/05/03 02:39:44;;;;;;;6.38;3.30;;;7.10;31.00;;;;;;5073014;28;19920;-72
2023/05/03 02:42:11;;;;;;;5.90;3.28;;;7.00;30.30;;;;;;5089582;28;20033;-72
2023/05/03 02:44:37;;;;;;;7.00;3.22;;;7.10;33.10;;;;;;5056774;28;20037;-72
2023/05/03 02:47:03;;;;;;;5.75;3.40;;;7.00;31.90;;;;;;5039544;28;20028;-72
2023/05/03 02:49:29;;;;;;;8.85;3.38;;;7.00;33.40;;;;;;5039385;28;20113;-72
2023/05/03 02:51:55;;;;;;;7.28;3.47;;;7.00;36.50;;;;;;5055936;28;20124;-70
2023/05/03 02:54:22;;;;;;;7.20;3.72;;;7.10;32.10;;;;;;5055882;28;20104;-72
2023/05/03 02:56:48;;;;;;;6.40;4.30;;;7.10;32.60;;;;;;5039359;28;20029;-71
2023/05/03 02:59:14;;;;;;;6.88;3.90;;;7.00;32.20;;;;;;5039241;28;20282;-71
2023/05/03 03:01:40;;;;;;;9.77;3.78;;;7.00;33.30;;;;;;5056631;28;20112;-71
2023/05/03 03:04:06;;;;;;;7.45;4.00;;;7.10;33.00;;;;;;5038957;28;20056;-71
2023/05/03 03:06:32;;;;;;;6.30;3.47;;;7.10;32.10;;;;;;5089440;28;20289;-71
2023/05/03 03:08:58;;;;;;;5.22;3.65;;;7.30;26.50;;;;;;5039464;28;20344;-73
2023/05/03 03:11:24;;;;;;;4.88;3.80;;;7.30;22.40;;;;;;5055641;28;20037;-72
2023/05/03 03:13:51;;;;;;;8.07;3.65;;;7.30;25.10;;;;;;5055895;28;20029;-72
2023/05/03 03:16:17;;;;;;;5.72;3.58;;;7.20;23.90;;;;;;5039230;28;20052;-72
2023/05/03 03:18:43;;;;;;;7.88;3.80;;;7.10;28.90;;;;;;5089928;28;20041;-72
2023/05/03 03:21:09;;;;;;;7.03;3.78;;;7.10;32.50;;;;;;5092965;28;20048;-71
2023/05/03 03:23:35;;;;;;;6.40;3.60;;;6.90;34.60;;;;;;5076319;28;20132;-72
2023/05/03 03:26:02;;;;;;;8.75;3.97;;;6.80;38.10;;;;;;5059497;28;20041;-72
2023/05/03 03:28:28;;;;;;;7.43;3.83;;;6.80;41.30;;;;;;5059483;28;20040;-72
2023/05/03 03:30:57;;;;;;;5.10;3.88;;;6.70;44.70;;;;;;5043446;28;20468;-72
2023/05/03 03:33:24;;;;;;;6.53;3.65;;;6.70;46.90;;;;;;5042964;28;20041;-72
2023/05/03 03:35:52;;;;;;;7.35;3.97;;;6.60;47.80;;;;;;5059345;28;20336;-73
2023/05/03 03:38:20;;;;;;;7.20;3.95;;;6.60;48.50;;;;;;5042970;28;20063;-71
2023/05/03 03:40:54;;;;;;;5.20;3.85;;;6.60;51.90;;;;;;5043821;28;20321;-72
2023/05/03 03:43:20;;;;;;;5.38;3.72;;;6.60;51.30;;;;;;5075825;28;20029;-71
2023/05/03 03:45:47;;;;;;;8.25;4.05;;;6.60;48.70;;;;;;5042711;28;20075;-72
2023/05/03 03:48:14;;;;;;;4.82;3.70;;;6.50;51.10;;;;;;5058919;28;20087;-70
2023/05/03 03:50:40;;;;;;;5.47;3.72;;;6.50;52.30;;;;;;5059570;28;20371;-71
2023/05/03 03:53:08;;;;;;;10.50;3.72;;;6.60;48.80;;;;;;5059567;28;20347;-71
2023/05/03 03:55:34;;;;;;;7.57;3.90;;;6.50;48.80;;;;;;5042630;28;20039;-71
2023/05/03 03:58:00;;;;;;;6.05;3.47;;;6.50;51.40;;;;;;5058948;28;20021;-70
2023/05/03 04:00:27;;;;;;;7.57;3.75;;;6.50;52.50;;;;;;5059697;28;20332;-73
2023/05/03 04:03:03;;;;;;;4.80;3.33;;;6.40;53.00;;;;;;5043459;28;20127;-72
2023/05/03 04:05:30;;;;;;;7.25;3.92;;;6.40;55.70;;;;;;5042406;28;20120;-72
2023/05/03 04:07:56;;;;;;;8.25;4.00;;;6.40;54.20;;;;;;5058853;28;20087;-72
2023/05/03 04:10:24;;;;;;;4.55;3.92;;;6.50;53.00;;;;;;5058660;28;20108;-72
2023/05/03 04:12:50;;;;;;;8.25;4.28;;;6.40;53.80;;;;;;5058366;28;20037;-73
2023/05/03 04:15:15;;;;;;;7.45;4.10;;;6.50;55.00;;;;;;5075075;28;20026;-72
2023/05/03 04:17:44;;;;;;;6.20;3.80;;;6.50;52.70;;;;;;5042289;28;20355;-73
2023/05/03 04:20:12;;;;;;;7.35;4.53;;;6.50;52.30;;;;;;5058520;28;20029;-73
2023/05/03 04:22:40;;;;;;;6.65;3.80;;;6.40;51.70;;;;;;5074810;28;20029;-72
2023/05/03 04:25:12;;;;;;;6.57;3.72;;;6.40;53.80;;;;;;5058405;28;20140;-72
2023/05/03 04:27:39;;;;;;;6.57;3.75;;;6.50;54.80;;;;;;5058227;28;20033;-73
2023/05/03 04:30:06;;;;;;;8.80;3.80;;;6.40;53.70;;;;;;5057270;28;20099;-73
2023/05/03 04:32:36;;;;;;;8.00;4.18;;;6.40;52.90;;;;;;5058125;28;20066;-73
2023/05/03 04:35:09;;;;;;;6.15;3.63;;;6.40;52.50;;;;;;5042971;28;20025;-72
2023/05/03 04:37:36;;;;;;;9.38;4.10;;;6.40;53.80;;;;;;5058346;28;20036;-73
2023/05/03 04:40:08;;;;;;;6.03;3.60;;;6.50;52.30;;;;;;5041587;28;20029;-72
2023/05/03 04:42:36;;;;;;;5.63;3.88;;;6.60;50.00;;;;;;5042090;28;20044;-73
2023/05/03 04:45:05;;;;;;;5.97;4.00;;;6.50;50.20;;;;;;5058267;28;20036;-73
2023/05/03 04:47:32;;;;;;;8.32;3.88;;;6.60;51.00;;;;;;5058227;28;20122;-73
2023/05/03 04:49:58;;;;;;;4.72;3.90;;;6.70;48.70;;;;;;5041646;28;20037;-72
2023/05/03 04:52:25;;;;;;;5.28;3.72;;;6.60;44.60;;;;;;5058034;28;20040;-72
2023/05/03 04:54:51;;;;;;;6.00;3.72;;;6.80;45.90;;;;;;5091660;28;20033;-72
2023/05/03 04:57:17;;;;;;;7.95;4.20;;;6.70;38.40;;;;;;5057960;28;20035;-72
2023/05/03 04:59:43;;;;;;;8.73;4.88;;;6.90;37.60;;;;;;5058789;28;20033;-72
2023/05/03 05:02:09;;;;;;;8.82;4.07;;;6.90;32.00;;;;;;5041203;28;20037;-72
2023/05/03 05:04:35;;;;;;;6.15;3.63;;;6.90;33.10;;;;;;5041127;28;20064;-72
2023/05/03 05:07:01;;;;;;;10.93;4.57;;;6.90;28.60;;;;;;5057575;28;20037;-73
2023/05/03 05:09:30;;;;;;;7.55;4.30;;;6.90;33.00;;;;;;5041444;28;20048;-72
2023/05/03 05:11:58;;;;;;;6.97;4.25;;;6.90;35.60;;;;;;5041148;28;20044;-73
2023/05/03 05:14:30;;;;;;;9.38;3.60;;;6.90;34.80;;;;;;5041657;28;20097;-72
2023/05/03 05:16:57;;;;;;;6.47;4.25;;;7.00;34.70;;;;;;5040956;28;20022;-71
2023/05/03 05:19:22;;;;;;;7.53;3.95;;;7.10;31.80;;;;;;5057569;28;20108;-72
2023/05/03 05:21:48;;;;;;;7.30;4.20;;;7.20;29.90;;;;;;5040810;28;20083;-72
2023/05/03 05:24:15;;;;;;;5.65;3.88;;;7.20;28.40;;;;;;5057358;28;20032;-72
2023/05/03 05:26:42;;;;;;;11.65;4.50;;;7.20;30.20;;;;;;5040998;28;20032;-71
2023/05/03 05:29:09;;;;;;;10.85;3.92;;;7.30;31.50;;;;;;5057335;28;20041;-71
2023/05/03 05:31:35;;;;;;;6.45;3.92;;;7.40;26.00;;;;;;5058269;28;20036;-72
2023/05/03 05:34:04;;;;;;;7.38;3.90;;;7.40;28.80;;;;;;5090659;28;20056;-70
2023/05/03 05:36:30;;;;;;;7.97;4.03;;;7.40;23.50;;;;;;5058067;28;20025;-72
2023/05/03 05:38:57;;;;;;;8.02;4.18;;;7.40;25.00;;;;;;5040498;28;20111;-70
2023/05/03 05:41:23;;;;;;;4.07;3.60;;;7.50;26.00;;;;;;5056994;28;20021;-72
2023/05/03 05:43:49;;;;;;;6.47;3.88;;;7.70;19.70;;;;;;5057832;28;20040;-71
2023/05/03 05:46:15;;;;;;;5.38;3.75;;;7.80;20.10;;;;;;5056981;28;20120;-71
2023/05/03 05:48:42;;;;;;;4.90;3.80;;;7.80;16.50;;;;;;5057011;28;20053;-73
2023/05/03 05:51:08;;;;;;;4.85;3.75;;;7.80;16.90;;;;;;5056825;28;20021;-71
2023/05/03 05:53:34;;;;;;;10.95;4.47;;;7.90;16.50;;;;;;5057429;28;20037;-70
2023/05/03 05:56:01;;;;;;;5.55;3.85;;;8.00;15.90;;;;;;5040320;28;20171;-71
2023/05/03 05:58:30;;;;;;;7.43;3.92;;;8.10;15.20;;;;;;5090164;28;20033;-72
2023/05/03 06:01:00;;;;;;;7.95;3.97;;;8.10;6.50;;;;;;5040151;28;20029;-69
2023/05/03 06:03:27;;;;;;;6.65;4.40;;;8.20;6.90;;;;;;5072807;28;20365;-73
2023/05/03 06:05:53;;;;;;;7.88;4.00;;;8.20;5.40;;;;;;5056671;28;20056;-71
2023/05/03 06:08:19;;;;;;;7.70;4.38;;;8.30;4.30;;;;;;5073484;28;20071;-73
2023/05/03 06:10:45;;;;;;;7.35;4.40;;;8.40;1.00;;;;;;5056527;28;20036;-73
2023/05/03 06:13:11;;;;;;;11.73;5.10;;;8.40;1.00;;;;;;5057117;28;20428;-73
2023/05/03 06:15:37;;;;;;;5.28;4.35;;;8.50;1.00;;;;;;5056512;28;20331;-71
2023/05/03 06:18:03;;;;;;;6.38;4.28;;;8.70;1.00;;;;;;5057487;28;20025;-73
2023/05/03 06:20:29;;;;;;;5.47;4.15;;;8.70;1.00;;;;;;5056312;28;20049;-72
2023/05/03 06:22:56;;;;;;;8.20;4.50;;;8.80;1.00;;;;;;5056296;28;20383;-73
2023/05/03 06:25:22;;;;;;;8.88;4.20;;;8.80;1.00;;;;;;5089767;28;20060;-72
2023/05/03 06:27:49;;;;;;;8.35;3.97;;;8.70;1.00;;;;;;5039771;28;20036;-72
2023/05/03 06:30:17;;;;;;;6.38;3.72;;;8.80;1.00;;;;;;5057453;28;20063;-66
2023/05/03 06:32:46;;;;;;;7.90;4.47;;;9.00;14.40;;;;;;5056038;28;20044;-72
2023/05/03 06:35:12;;;;;;;6.40;5.07;;;9.40;1.00;;;;;;5056133;28;20395;-72
2023/05/03 06:37:39;;;;;;;7.28;4.63;;;9.40;1.00;;;;;;5056956;28;20478;-74
2023/05/03 06:40:06;;;;;;;7.22;4.95;;;9.40;1.00;;;;;;5072984;28;20044;-72
2023/05/03 06:42:32;;;;;;;8.63;4.93;;;9.60;1.00;;;;;;5056129;28;20061;-74
2023/05/03 06:45:08;;;;;;;10.45;5.00;;;9.60;1.00;;;;;;5056244;28;20044;-73
2023/05/03 06:47:38;;;;;;;6.57;4.93;;;9.70;1.00;;;;;;5056014;28;20033;-69
2023/05/03 06:50:05;;;;;;;8.07;4.95;;;9.50;1.00;;;;;;5039520;28;20032;-73
2023/05/03 06:52:31;;;;;;;10.18;4.70;;;9.50;1.00;;;;;;5089655;28;20434;-72
2023/05/03 06:54:56;;;;;;;6.00;4.90;;;9.50;1.00;;;;;;5075535;28;20028;-67
2023/05/03 06:57:22;;;;;;;9.13;5.00;;;9.50;1.00;;;;;;5060860;28;20021;-74
2023/05/03 06:59:48;;;;;;;8.25;5.15;;;9.70;1.00;;;;;;5060059;28;20032;-71
2023/05/03 07:02:14;;;;;;;5.80;4.10;;;9.70;1.00;;;;;;5061010;28;20040;-74
2023/05/03 07:04:40;;;;;;;6.28;4.53;;;9.70;1.00;;;;;;5060598;28;20191;-73
2023/05/03 07:07:06;;;;;;;7.90;4.93;;;9.80;1.00;;;;;;5060215;28;20071;-73
2023/05/03 07:09:32;;;;;;;8.52;4.95;;;9.80;1.00;;;;;;5059876;28;20329;-72
2023/05/03 07:11:58;;;;;;;11.10;5.38;;;9.90;1.00;;;;;;5059716;28;20092;-73
2023/05/03 07:14:26;;;;;;;8.57;4.60;;;10.00;1.00;;;;;;5060618;28;20024;-70
2023/05/03 07:16:51;;;;;;;10.90;5.20;;;10.20;1.00;;;;;;5059720;28;20043;-72
2023/05/03 07:19:17;;;;;;;9.07;4.57;;;10.20;1.00;;;;;;5093295;28;20116;-72
2023/05/03 07:21:43;;;;;;;9.43;4.65;;;10.30;1.00;;;;;;5059679;28;20037;-74
2023/05/03 07:24:11;;;;;;;5.47;4.45;;;10.40;1.00;;;;;;5093004;28;20036;-75
2023/05/03 07:26:37;;;;;;;10.30;5.28;;;10.60;1.00;;;;;;5059629;28;20029;-69
2023/05/03 07:29:03;;;;;;;5.20;4.70;;;10.70;1.00;;;;;;5059559;28;20033;-71
2023/05/03 07:31:29;;;;;;;7.40;4.65;;;10.70;1.00;;;;;;5060553;28;20121;-74
2023/05/03 07:33:55;;;;;;;6.30;4.38;;;10.70;1.00;;;;;;5042589;28;20056;-70
2023/05/03 07:36:21;;;;;;;7.55;4.78;;;10.70;1.00;;;;;;5059449;28;20029;-73
2023/05/03 07:38:46;;;;;;;8.30;4.90;;;10.90;1.00;;;;;;5060255;28;20044;-70
2023/05/03 07:41:12;;;;;;;6.75;4.90;;;10.90;1.00;;;;;;5075984;28;20286;-71
2023/05/03 07:43:38;;;;;;;5.65;4.20;;;10.90;1.00;;;;;;5059591;28;20025;-68
2023/05/03 07:46:04;;;;;;;9.90;4.90;;;11.00;1.00;;;;;;5059338;28;20056;-69
2023/05/03 07:48:30;;;;;;;7.80;5.05;;;11.00;1.00;;;;;;5059189;28;20036;-71
2023/05/03 07:50:56;;;;;;;6.82;5.15;;;11.10;1.00;;;;;;5059805;28;20400;-74
2023/05/03 07:53:21;;;;;;;6.55;4.38;;;11.30;1.00;;;;;;5058911;28;20037;-73
2023/05/03 07:55:47;;;;;;;8.82;5.30;;;11.40;1.00;;;;;;5059749;28;20461;-73
2023/05/03 07:58:13;;;;;;;8.48;4.78;;;11.50;1.00;;;;;;5059038;28;20025;-72
2023/05/03 08:00:39;;;;;;;9.32;5.28;;;11.50;1.00;;;;;;5059815;28;20382;-75
2023/05/03 08:03:05;;;;;;;8.18;4.75;;;11.50;1.00;;;;;;5058903;28;20029;-75
2023/05/03 08:05:31;;;;;;;9.00;4.70;;;11.60;1.00;;;;;;5075318;28;20112;-74
2023/05/03 08:07:57;;;;;;;10.18;4.75;;;11.60;1.00;;;;;;5092543;28;20046;-73
2023/05/03 08:10:23;;;;;;;7.38;5.25;;;11.60;1.00;;;;;;5059504;28;20282;-72
2023/05/03 08:12:49;;;;;;;6.90;5.15;;;11.70;1.00;;;;;;5058787;28;20037;-77
2023/05/03 08:15:15;;;;;;;7.35;4.63;;;11.70;1.00;;;;;;5059463;28;20029;-76
2023/05/03 08:17:42;;;;;;;9.93;5.53;;;11.80;1.00;;;;;;5059372;28;20082;-76
2023/05/03 08:20:09;;;;;;;9.00;5.70;;;12.00;1.00;;;;;;5092270;28;20120;-72
2023/05/03 08:22:36;;;;;;;10.32;5.63;;;12.10;1.00;;;;;;5058703;28;20037;-77
2023/05/03 08:25:03;;;;;;;11.00;6.43;;;12.20;1.00;;;;;;5059527;28;20047;-73
2023/05/03 08:27:30;;;;;;;18.15;5.82;;;12.10;1.00;;;;;;5059089;28;20040;-69
2023/05/03 08:29:56;;;;;;;10.73;5.60;;;12.20;1.00;;;;;;5058598;28;20069;-71
2023/05/03 08:32:25;;;;;;;11.05;5.90;;;12.30;1.00;;;;;;5059040;28;20047;-75
2023/05/03 08:34:51;;;;;;;9.90;5.78;;;12.40;1.00;;;;;;5059119;28;20396;-70
2023/05/03 08:37:17;;;;;;;10.88;5.57;;;12.50;1.00;;;;;;5059005;28;20078;-73
2023/05/03 08:39:43;;;;;;;11.55;6.10;;;12.50;1.00;;;;;;5058371;28;20029;-73
2023/05/03 08:42:09;;;;;;;9.95;5.90;;;12.60;1.00;;;;;;5057957;28;20361;-71
2023/05/03 08:44:48;;;;;;;9.32;5.70;;;12.50;1.00;;;;;;5058282;28;20198;-71
2023/05/03 08:47:15;;;;;;;6.90;5.47;;;12.60;1.00;;;;;;5058792;28;20033;-72
2023/05/03 08:49:42;;;;;;;12.70;5.50;;;12.70;1.00;;;;;;5091535;28;20048;-70
2023/05/03 08:52:12;;;;;;;9.20;5.97;;;12.80;99.90;;;;;;5058712;28;20033;-73
2023/05/03 08:54:38;;;;;;;8.60;5.60;;;12.80;99.90;;;;;;5058011;28;20312;-71
2023/05/03 08:57:13;;;;;;;11.15;6.07;;;12.90;99.90;;;;;;5058883;28;20037;-74
2023/05/03 08:59:49;;;;;;;8.23;5.38;;;13.00;99.90;;;;;;5058930;28;20032;-73
2023/05/03 09:02:16;;;;;;;10.27;5.05;;;13.10;99.90;;;;;;5058150;28;20032;-69
2023/05/03 09:04:43;;;;;;;9.07;5.32;;;13.20;1.00;;;;;;5058271;28;20055;-71
2023/05/03 09:07:11;;;;;;;11.00;6.20;;;13.30;1.00;;;;;;5058390;28;20033;-72
2023/05/03 09:09:37;;;;;;;11.40;5.40;;;13.20;1.00;;;;;;5058338;28;20025;-70
2023/05/03 09:12:04;;;;;;;7.88;5.25;;;13.10;1.00;;;;;;5057650;28;20121;-71
2023/05/03 09:14:30;;;;;;;10.38;5.43;;;13.10;1.00;;;;;;5057860;28;20056;-73
2023/05/03 09:17:14;;;;;;;9.73;5.28;;;13.20;1.00;;;;;;5056939;28;20028;-74
2023/05/03 09:19:54;;;;;;;8.05;5.45;;;13.40;1.00;;;;;;5058219;28;20428;-75
2023/05/03 09:22:23;;;;;;;7.55;5.30;;;13.40;1.00;;;;;;5058548;28;20111;-69
2023/05/03 09:24:54;;;;;;;7.20;4.68;;;13.30;1.00;;;;;;5074150;28;20388;-72
2023/05/03 09:27:20;;;;;;;11.65;5.53;;;13.50;1.00;;;;;;5058291;28;20120;-75
2023/05/03 09:29:47;;;;;;;7.50;4.60;;;13.80;1.00;;;;;;5057481;28;20104;-74
2023/05/03 09:32:13;;;;;;;6.90;4.50;;;13.90;1.00;;;;;;5057728;28;20033;-74
2023/05/03 09:34:39;;;;;;;6.68;4.80;;;13.90;99.90;;;;;;5057858;28;20029;-74
2023/05/03 09:37:05;;;;;;;6.85;4.93;;;14.00;99.90;;;;;;5040441;28;20040;-73
2023/05/03 09:39:32;;;;;;;7.68;5.05;;;14.10;1.00;;;;;;5090762;28;20025;-76
2023/05/03 09:41:59;;;;;;;8.18;5.05;;;14.30;99.90;;;;;;5057887;28;20380;-76
2023/05/03 09:44:53;;;;;;;6.18;5.25;;;14.40;85.00;;;;;;5057093;28;20435;-72
2023/05/03 09:47:20;;;;;;;8.25;5.30;;;14.40;1.00;;;;;;5056970;28;20033;-73
2023/05/03 09:49:46;;;;;;;7.75;5.60;;;14.50;1.00;;;;;;5057103;28;20047;-74
2023/05/03 09:52:12;;;;;;;8.82;5.28;;;14.70;99.90;;;;;;5057167;28;20071;-75
2023/05/03 09:54:38;;;;;;;9.27;5.50;;;14.50;1.00;;;;;;5057669;28;20417;-74
2023/05/03 09:57:06;;;;;;;9.68;5.25;;;14.40;1.00;;;;;;5057696;28;20018;-72
2023/05/03 09:59:33;;;;;;;8.90;5.63;;;14.60;1.00;;;;;;5057468;28;20045;-71
2023/05/03 10:02:06;;;;;;;9.10;5.65;;;14.70;1.00;;;;;;5056859;28;20040;-73
2023/05/03 10:04:39;;;;;;;;;;;14.70;99.90;;;;;;5057555;28;20094;-67
2023/05/03 10:07:10;;;;;;;10.40;5.80;;;14.60;99.90;;;;;;5057511;28;19908;-75
2023/05/03 10:09:39;;;;;;;11.07;5.82;;;14.70;26.80;;;;;;5090536;28;20094;-74
2023/05/03 10:12:08;;;;;;;8.48;5.90;;;14.50;1.00;;;;;;5039836;28;20033;-75
2023/05/03 10:14:35;;;;;;;7.93;5.60;;;14.60;1.00;;;;;;5057450;28;20029;-75
2023/05/03 10:17:10;;;;;;;9.38;5.82;;;14.80;99.90;;;;;;5091527;28;20028;-73
2023/05/03 10:19:49;;;;;;;8.05;6.03;;;14.80;99.90;;;;;;5057291;28;20412;-71
2023/05/03 10:22:16;;;;;;;10.60;5.93;;;14.80;1.00;;;;;;5057221;28;20044;-75
2023/05/03 10:25:01;;;;;;;8.85;6.05;;;15.00;99.90;;;;;;5073154;28;20135;-75
2023/05/03 10:27:47;;;;;;;7.43;6.00;;;15.10;99.90;;;;;;5056485;28;20056;-66
2023/05/03 10:30:31;;;;;;;10.52;5.53;;;15.20;1.00;;;;;;5029928;28;20041;-70
2023/05/03 10:32:58;;;;;;;9.27;6.38;;;15.40;99.90;;;;;;5089921;28;20300;-70
2023/05/03 10:35:28;;;;;;;8.45;5.60;;;15.40;1.00;;;;;;5056655;28;20041;-71
2023/05/03 10:37:58;;;;;;;7.30;5.63;;;15.40;1.00;;;;;;5057076;28;20041;-72
2023/05/03 10:40:40;;;;;;;8.30;6.40;;;15.50;99.90;;;;;;5056822;28;20304;-73
2023/05/03 10:43:06;;;;;;;9.63;6.40;;;15.80;1.00;;;;;;5056890;28;20122;-71
2023/05/03 10:45:33;;;;;;;7.10;5.25;;;15.90;99.90;;;;;;5056363;28;20033;-75
2023/05/03 10:48:10;;;;;;;10.27;6.05;;;15.90;1.00;;;;;;5057074;28;20300;-74
2023/05/03 10:50:40;;;;;;;13.95;5.80;;;16.20;1.00;;;;;;5039547;28;20032;-70
2023/05/03 10:53:07;;;;;;;6.68;5.70;;;17.10;1.00;;;;;;5089497;28;20040;-74
2023/05/03 10:55:33;;;;;;;6.82;5.00;;;17.80;99.90;;;;;;5056762;28;20025;-73
2023/05/03 10:58:00;;;;;;;7.53;5.35;;;18.30;1.00;;;;;;5072785;28;20539;-70
2023/05/03 11:00:36;;;;;;;8.75;5.97;;;19.70;1.00;;;;;;5056044;28;20365;-72
2023/05/03 11:03:11;;;;;;;11.13;5.63;;;19.70;99.90;;;;;;5056642;28;20391;-71
2023/05/03 11:05:37;;;;;;;6.75;5.05;;;21.00;1.00;;;;;;5055985;28;20060;-73
2023/05/03 11:08:10;;;;;;;7.68;4.60;;;21.00;99.90;;;;;;5072935;28;20029;-74
2023/05/03 11:10:36;;;;;;;5.80;5.00;;;22.60;99.90;;;;;;5056099;28;20102;-76
2023/05/03 11:13:02;;;;;;;6.65;5.05;;;23.00;1.00;;;;;;5056994;28;20037;-74
2023/05/03 11:15:28;;;;;;;6.90;5.70;;;23.00;1.00;;;;;;5055792;28;20142;-76
2023/05/03 11:17:54;;;;;;;10.10;5.85;;;23.50;1.00;;;;;;5056710;28;20032;-74
2023/05/03 11:20:20;;;;;;;6.68;5.47;;;23.30;1.00;;;;;;5056493;28;20385;-75
2023/05/03 11:22:46;;;;;;;8.32;5.75;;;22.90;1.00;;;;;;5056517;28;20124;-71
2023/05/03 11:25:12;;;;;;;9.40;5.93;;;22.20;1.00;;;;;;5039401;28;20036;-74
2023/05/03 11:27:41;;;;;;;6.68;5.07;;;22.10;1.00;;;;;;5056602;28;20041;-74
2023/05/03 11:30:09;;;;;;;6.57;4.88;;;22.70;1.00;;;;;;5089306;28;20111;-75
2023/05/03 11:32:38;;;;;;;8.63;4.82;;;23.70;1.00;;;;;;5089089;28;20075;-71
2023/05/03 11:35:06;;;;;;;8.40;5.68;;;23.70;1.00;;;;;;5056432;28;20091;-73
2023/05/03 11:37:33;;;;;;;5.57;4.85;;;23.30;1.00;;;;;;5072274;28;20033;-76
2023/05/03 11:39:59;;;;;;;8.70;5.55;;;24.80;1.00;;;;;;5040097;28;20040;-74
2023/05/03 11:42:26;;;;;;;8.50;5.55;;;24.50;1.00;;;;;;5060166;28;20025;-75
2023/05/03 11:44:53;;;;;;;9.75;5.10;;;24.80;1.00;;;;;;5060127;28;20056;-74
2023/05/03 11:47:20;;;;;;;5.95;5.35;;;24.80;99.90;;;;;;5042845;28;20044;-74
2023/05/03 11:49:56;;;;;;;8.25;5.72;;;23.60;99.90;;;;;;5060082;28;20404;-71
2023/05/03 11:52:24;;;;;;;5.55;5.05;;;23.10;1.00;;;;;;5059233;28;20037;-73
2023/05/03 11:54:50;;;;;;;6.65;5.28;;;22.50;1.00;;;;;;5059895;28;20028;-73
2023/05/03 11:57:17;;;;;;;6.45;5.32;;;22.60;1.00;;;;;;5075508;28;20037;-76
2023/05/03 11:59:44;;;;;;;14.43;5.45;;;23.30;1.00;;;;;;5059228;28;20048;-77
2023/05/03 12:02:14;;;;;;;9.43;5.10;;;23.50;1.00;;;;;;5075588;28;20435;-77
2023/05/03 12:04:42;;;;;;;10.00;5.10;;;23.90;1.00;;;;;;5059541;28;20049;-73
2023/05/03 12:07:12;;;;;;;8.20;5.22;;;24.80;1.00;;;;;;5059222;28;20040;-74
2023/05/03 12:09:39;;;;;;;6.25;5.35;;;24.40;99.90;;;;;;5042729;28;20446;-71
2023/05/03 12:12:04;;;;;;;7.35;6.07;;;23.90;99.90;;;;;;5058676;28;20025;-72
2023/05/03 12:14:57;;;;;;;10.02;5.63;;;24.00;99.90;;;;;;5042354;28;20087;-72
2023/05/03 12:17:36;;;;;;;;;;;24.90;99.90;;;;;;5059870;28;20031;-71
2023/05/03 12:20:20;;;;;;;11.18;5.40;;;25.00;99.90;;;;;;5059336;28;19909;-70
2023/05/03 12:22:53;;;;;;;8.95;5.68;;;25.50;99.90;;;;;;5058503;28;20025;-70
2023/05/03 12:25:20;;;;;;;7.55;5.88;;;25.70;99.90;;;;;;5059819;28;20041;-73
2023/05/03 12:27:47;;;;;;;8.10;6.18;;;27.00;99.90;;;;;;5059317;28;20120;-70
2023/05/03 12:30:13;;;;;;;9.13;5.60;;;27.00;99.90;;;;;;5092145;28;20090;-73
2023/05/03 12:32:39;;;;;;;8.32;5.20;;;26.40;99.90;;;;;;5058997;28;20133;-68
2023/05/03 12:35:07;;;;;;;8.68;5.47;;;26.60;99.90;;;;;;5059031;28;20129;-69
2023/05/03 12:37:34;;;;;;;8.27;5.20;;;27.00;99.90;;;;;;5091735;28;20029;-71
2023/05/03 12:40:00;;;;;;;7.13;4.50;;;26.90;99.90;;;;;;5091789;28;20029;-73
2023/05/03 12:42:27;;;;;;;5.20;4.70;;;28.10;99.90;;;;;;5058397;28;20037;-72
2023/05/03 12:44:57;;;;;;;5.97;5.38;;;29.30;99.90;;;;;;5058960;28;20111;-76
2023/05/03 12:47:23;;;;;;;6.70;5.15;;;29.00;99.90;;;;;;5058096;28;20036;-74
2023/05/03 12:49:48;;;;;;;6.10;4.95;;;27.70;99.90;;;;;;5058087;28;20048;-71
2023/05/03 12:52:15;;;;;;;5.70;4.90;;;28.20;99.90;;;;;;5056779;28;20037;-76
2023/05/03 12:54:41;;;;;;;7.38;4.80;;;28.50;99.90;;;;;;5058135;28;20040;-72
2023/05/03 12:57:08;;;;;;;5.22;4.75;;;27.90;99.90;;;;;;5058004;28;20029;-70
2023/05/03 12:59:38;;;;;;;6.95;5.05;;;29.10;99.90;;;;;;5058000;28;20395;-73
2023/05/03 13:02:04;;;;;;;7.07;4.60;;;29.40;99.90;;;;;;5058576;28;20033;-72